Pays
Station

 

Conditions  météo  pour  Kodiak  -  Etats-Unis    Etats-Unis

  
2 °C
    
 
 

METAR pour Kodiak :

PADQ 212153Z 06004KT 10SM OVC010 02/02 A2951 RMK AO2 RAE36 SLP993 P0001 T00170017 $

 

Voici le bulletin pour Kodiak - Etats-Unis.
 
Le bulletin a été fait il y a 44 minutes, à 21:53 UTC .
Le vent soufflait à la vitesse de 2.1 mètres par seconde de Est/Nord-est (060°).
 
La température était de 2 °C, avec un point de rosée à 2 °C.
La température ressentie était de -1 °C.
 
La pression atmosphérique était de 999 hPa.
L'humidité relative était de 100.0%.
 
Le ciel était nuageux à partir d'une hauteur de 305 mètres
 
La visibilité globale était de 16.1 kilomètres.
 

 
 
 

Pays :   A   B   C   D   E   F   G   H   I   J   K   L   M   N   O   P   Q   R   S   T   U   V   W   Y   Z

 

Partenaires :  Info Météo avec Met'info
Météo Marine avec MeteoMarine.net
Infos Site  |  Infos Légales  |  Crédits  |  Confidentialité
Contactez-nous  |  Ajouter aux favoris
© 2013-2019 METAR - Tous droits réservés